sensor_id;sensor_type;location;lat;lon;timestamp;pressure;altitude;pressure_sealevel;temperature;humidity
80986;BME280;70451;51.226;6.412;2023-11-21T00:02:09;100399.25;;;5.74;100.00
80986;BME280;70451;51.226;6.412;2023-11-21T00:04:25;100407.88;;;5.74;100.00
80986;BME280;70451;51.226;6.412;2023-11-21T00:06:40;100405.16;;;5.77;100.00
80986;BME280;70451;51.226;6.412;2023-11-21T00:08:56;100406.53;;;5.89;100.00
80986;BME280;70451;51.226;6.412;2023-11-21T00:11:11;100403.53;;;6.00;100.00
80986;BME280;70451;51.226;6.412;2023-11-21T00:13:27;100411.81;;;6.09;100.00
80986;BME280;70451;51.226;6.412;2023-11-21T00:15:42;100418.22;;;6.22;100.00
80986;BME280;70451;51.226;6.412;2023-11-21T00:17:57;100410.28;;;6.27;100.00
80986;BME280;70451;51.226;6.412;2023-11-21T00:20:13;100412.63;;;6.33;100.00
80986;BME280;70451;51.226;6.412;2023-11-21T00:22:28;100415.97;;;6.37;100.00
80986;BME280;70451;51.226;6.412;2023-11-21T00:24:43;100418.38;;;6.41;100.00
80986;BME280;70451;51.226;6.412;2023-11-21T00:26:59;100424.16;;;6.48;100.00
80986;BME280;70451;51.226;6.412;2023-11-21T00:29:14;100425.72;;;6.53;100.00
80986;BME280;70451;51.226;6.412;2023-11-21T00:31:32;100426.38;;;6.58;100.00
80986;BME280;70451;51.226;6.412;2023-11-21T00:33:47;100417.69;;;6.59;100.00
80986;BME280;70451;51.226;6.412;2023-11-21T00:36:03;100425.34;;;6.62;100.00
80986;BME280;70451;51.226;6.412;2023-11-21T00:38:18;100427.06;;;6.62;100.00
80986;BME280;70451;51.226;6.412;2023-11-21T00:40:35;100433.00;;;6.65;100.00
80986;BME280;70451;51.226;6.412;2023-11-21T00:42:50;100425.09;;;6.68;100.00
80986;BME280;70451;51.226;6.412;2023-11-21T00:45:06;100431.06;;;6.71;100.00
80986;BME280;70451;51.226;6.412;2023-11-21T00:47:22;100422.34;;;6.73;100.00
80986;BME280;70451;51.226;6.412;2023-11-21T00:49:37;100420.50;;;6.75;100.00
80986;BME280;70451;51.226;6.412;2023-11-21T00:51:54;100424.78;;;6.76;100.00
80986;BME280;70451;51.226;6.412;2023-11-21T00:54:10;100417.91;;;6.75;100.00
80986;BME280;70451;51.226;6.412;2023-11-21T00:56:26;100414.31;;;6.79;100.00
80986;BME280;70451;51.226;6.412;2023-11-21T00:58:41;100418.53;;;6.82;100.00
80986;BME280;70451;51.226;6.412;2023-11-21T01:01:01;100423.66;;;6.83;100.00
80986;BME280;70451;51.226;6.412;2023-11-21T01:03:18;100423.47;;;6.88;100.00
80986;BME280;70451;51.226;6.412;2023-11-21T01:05:34;100427.81;;;6.87;100.00
80986;BME280;70451;51.226;6.412;2023-11-21T01:07:49;100435.56;;;6.89;100.00
80986;BME280;70451;51.226;6.412;2023-11-21T01:10:05;100438.97;;;6.89;100.00
80986;BME280;70451;51.226;6.412;2023-11-21T01:12:22;100441.56;;;6.89;100.00
80986;BME280;70451;51.226;6.412;2023-11-21T01:14:40;100445.94;;;6.89;100.00
80986;BME280;70451;51.226;6.412;2023-11-21T01:16:55;100448.50;;;6.89;100.00
80986;BME280;70451;51.226;6.412;2023-11-21T01:19:11;100454.47;;;6.91;100.00
80986;BME280;70451;51.226;6.412;2023-11-21T01:21:26;100457.06;;;6.91;100.00
80986;BME280;70451;51.226;6.412;2023-11-21T01:23:43;100461.28;;;6.93;100.00
80986;BME280;70451;51.226;6.412;2023-11-21T01:25:58;100458.69;;;6.93;100.00
80986;BME280;70451;51.226;6.412;2023-11-21T01:28:13;100464.72;;;6.94;100.00
80986;BME280;70451;51.226;6.412;2023-11-21T01:30:28;100464.69;;;6.95;100.00
80986;BME280;70451;51.226;6.412;2023-11-21T01:32:44;100457.75;;;6.96;100.00
80986;BME280;70451;51.226;6.412;2023-11-21T01:34:59;100463.84;;;6.95;100.00
80986;BME280;70451;51.226;6.412;2023-11-21T01:37:15;100453.38;;;6.96;100.00
80986;BME280;70451;51.226;6.412;2023-11-21T01:39:30;100457.66;;;6.97;100.00
80986;BME280;70451;51.226;6.412;2023-11-21T01:41:46;100462.78;;;6.99;100.00
80986;BME280;70451;51.226;6.412;2023-11-21T01:44:01;100455.84;;;6.99;100.00
80986;BME280;70451;51.226;6.412;2023-11-21T01:46:17;100455.84;;;6.99;100.00
80986;BME280;70451;51.226;6.412;2023-11-21T01:48:33;100457.59;;;6.99;100.00
80986;BME280;70451;51.226;6.412;2023-11-21T01:50:49;100454.06;;;7.01;100.00
80986;BME280;70451;51.226;6.412;2023-11-21T01:53:05;100455.75;;;7.02;100.00
80986;BME280;70451;51.226;6.412;2023-11-21T01:55:22;100463.53;;;7.02;100.00
80986;BME280;70451;51.226;6.412;2023-11-21T01:57:37;100457.41;;;7.03;100.00
80986;BME280;70451;51.226;6.412;2023-11-21T01:59:54;100460.84;;;7.04;100.00
80986;BME280;70451;51.226;6.412;2023-11-21T02:02:10;100471.22;;;7.04;100.00
80986;BME280;70451;51.226;6.412;2023-11-21T02:04:25;100468.63;;;7.04;100.00
80986;BME280;70451;51.226;6.412;2023-11-21T02:06:40;100460.84;;;7.04;100.00
80986;BME280;70451;51.226;6.412;2023-11-21T02:08:55;100470.31;;;7.05;100.00
80986;BME280;70451;51.226;6.412;2023-11-21T02:11:11;100472.88;;;7.06;100.00
80986;BME280;70451;51.226;6.412;2023-11-21T02:13:29;100471.06;;;7.08;100.00
80986;BME280;70451;51.226;6.412;2023-11-21T02:15:44;100472.75;;;7.10;100.00
80986;BME280;70451;51.226;6.412;2023-11-21T02:17:59;100474.56;;;7.07;100.00
80986;BME280;70451;51.226;6.412;2023-11-21T02:20:15;100483.97;;;7.10;100.00
80986;BME280;70451;51.226;6.412;2023-11-21T02:22:32;100490.84;;;7.11;100.00
80986;BME280;70451;51.226;6.412;2023-11-21T02:24:49;100486.50;;;7.12;100.00
80986;BME280;70451;51.226;6.412;2023-11-21T02:27:04;100490.84;;;7.11;100.00
80986;BME280;70451;51.226;6.412;2023-11-21T02:29:21;100485.66;;;7.11;100.00
80986;BME280;70451;51.226;6.412;2023-11-21T02:31:37;100494.22;;;7.13;100.00
80986;BME280;70451;51.226;6.412;2023-11-21T02:34:00;100496.75;;;7.15;100.00
80986;BME280;70451;51.226;6.412;2023-11-21T02:36:16;100503.63;;;7.16;100.00
80986;BME280;70451;51.226;6.412;2023-11-21T02:38:31;100497.56;;;7.17;100.00
80986;BME280;70451;51.226;6.412;2023-11-21T02:40:47;100501.00;;;7.17;100.00
80986;BME280;70451;51.226;6.412;2023-11-21T02:43:02;100492.38;;;7.17;100.00
80986;BME280;70451;51.226;6.412;2023-11-21T02:45:19;100495.81;;;7.17;100.00
80986;BME280;70451;51.226;6.412;2023-11-21T02:47:35;100485.53;;;7.14;100.00
80986;BME280;70451;51.226;6.412;2023-11-21T02:49:51;100493.31;;;7.14;100.00
80986;BME280;70451;51.226;6.412;2023-11-21T02:52:07;100495.00;;;7.15;100.00
80986;BME280;70451;51.226;6.412;2023-11-21T02:54:22;100496.75;;;7.15;100.00
80986;BME280;70451;51.226;6.412;2023-11-21T02:56:38;100493.44;;;7.11;100.00
80986;BME280;70451;51.226;6.412;2023-11-21T02:58:59;100494.22;;;7.13;100.00
80986;BME280;70451;51.226;6.412;2023-11-21T03:01:15;100494.22;;;7.13;100.00
80986;BME280;70451;51.226;6.412;2023-11-21T03:03:30;100494.28;;;7.12;100.00
80986;BME280;70451;51.226;6.412;2023-11-21T03:05:46;100498.56;;;7.13;100.00
80986;BME280;70451;51.226;6.412;2023-11-21T03:08:01;100499.47;;;7.12;100.00
80986;BME280;70451;51.226;6.412;2023-11-21T03:10:16;100505.44;;;7.14;100.00
80986;BME280;70451;51.226;6.412;2023-11-21T03:12:31;100501.16;;;7.13;100.00
80986;BME280;70451;51.226;6.412;2023-11-21T03:14:47;100510.69;;;7.12;100.00
80986;BME280;70451;51.226;6.412;2023-11-21T03:17:03;100507.25;;;7.12;100.00
80986;BME280;70451;51.226;6.412;2023-11-21T03:19:19;100506.47;;;7.10;100.00
80986;BME280;70451;51.226;6.412;2023-11-21T03:21:35;100506.47;;;7.10;100.00
80986;BME280;70451;51.226;6.412;2023-11-21T03:23:51;100510.88;;;7.07;100.00
80986;BME280;70451;51.226;6.412;2023-11-21T03:26:11;100522.03;;;7.10;100.00
80986;BME280;70451;51.226;6.412;2023-11-21T03:28:27;100522.94;;;7.08;100.00
80986;BME280;70451;51.226;6.412;2023-11-21T03:30:43;100528.06;;;7.10;100.00
80986;BME280;70451;51.226;6.412;2023-11-21T03:32:58;100532.41;;;7.10;100.00
80986;BME280;70451;51.226;6.412;2023-11-21T03:35:14;100539.28;;;7.11;100.00
80986;BME280;70451;51.226;6.412;2023-11-21T03:37:29;100542.78;;;7.10;100.00
80986;BME280;70451;51.226;6.412;2023-11-21T03:39:44;100535.78;;;7.12;100.00
80986;BME280;70451;51.226;6.412;2023-11-21T03:42:00;100543.56;;;7.12;100.00
80986;BME280;70451;51.226;6.412;2023-11-21T03:44:15;100540.13;;;7.11;100.00
80986;BME280;70451;51.226;6.412;2023-11-21T03:46:31;100538.38;;;7.12;100.00
80986;BME280;70451;51.226;6.412;2023-11-21T03:48:46;100542.72;;;7.11;100.00
80986;BME280;70451;51.226;6.412;2023-11-21T03:51:01;100547.91;;;7.11;100.00
80986;BME280;70451;51.226;6.412;2023-11-21T03:53:17;100553.94;;;7.12;100.00
80986;BME280;70451;51.226;6.412;2023-11-21T03:55:32;100550.38;;;7.14;100.00
80986;BME280;70451;51.226;6.412;2023-11-21T03:57:47;100555.63;;;7.13;100.00
80986;BME280;70451;51.226;6.412;2023-11-21T04:00:03;100559.03;;;7.15;100.00
80986;BME280;70451;51.226;6.412;2023-11-21T04:02:23;100551.19;;;7.16;100.00
80986;BME280;70451;51.226;6.412;2023-11-21T04:04:41;100558.97;;;7.16;100.00
80986;BME280;70451;51.226;6.412;2023-11-21T04:06:56;100558.88;;;7.18;100.00
80986;BME280;70451;51.226;6.412;2023-11-21T04:09:12;100553.78;;;7.16;100.00
80986;BME280;70451;51.226;6.412;2023-11-21T04:11:27;100558.13;;;7.16;100.00
80986;BME280;70451;51.226;6.412;2023-11-21T04:13:45;100558.22;;;7.13;100.00
80986;BME280;70451;51.226;6.412;2023-11-21T04:16:02;100562.63;;;7.11;100.00
80986;BME280;70451;51.226;6.412;2023-11-21T04:18:18;100556.78;;;7.05;100.00
80986;BME280;70451;51.226;6.412;2023-11-21T04:20:33;100552.63;;;7.01;100.00
80986;BME280;70451;51.226;6.412;2023-11-21T04:22:48;100555.50;;;6.94;100.00
80986;BME280;70451;51.226;6.412;2023-11-21T04:25:04;100558.16;;;6.92;100.00
80986;BME280;70451;51.226;6.412;2023-11-21T04:27:19;100565.97;;;6.91;100.00
80986;BME280;70451;51.226;6.412;2023-11-21T04:29:34;100565.13;;;6.90;100.00
80986;BME280;70451;51.226;6.412;2023-11-21T04:31:50;100555.66;;;6.89;100.00
80986;BME280;70451;51.226;6.412;2023-11-21T04:34:05;100558.25;;;6.89;100.00
80986;BME280;70451;51.226;6.412;2023-11-21T04:36:20;100568.56;;;6.91;100.00
80986;BME280;70451;51.226;6.412;2023-11-21T04:38:36;100570.25;;;6.92;100.00
80986;BME280;70451;51.226;6.412;2023-11-21T04:40:51;100571.13;;;6.92;100.00
80986;BME280;70451;51.226;6.412;2023-11-21T04:43:07;100559.84;;;6.93;100.00
80986;BME280;70451;51.226;6.412;2023-11-21T04:45:22;100571.22;;;6.89;100.00
80986;BME280;70451;51.226;6.412;2023-11-21T04:47:38;100575.59;;;6.89;100.00
80986;BME280;70451;51.226;6.412;2023-11-21T04:49:53;100576.34;;;6.91;100.00
80986;BME280;70451;51.226;6.412;2023-11-21T04:52:08;100582.34;;;6.93;100.00
80986;BME280;70451;51.226;6.412;2023-11-21T04:54:24;100583.22;;;6.92;100.00
80986;BME280;70451;51.226;6.412;2023-11-21T04:56:39;100585.72;;;6.95;100.00
80986;BME280;70451;51.226;6.412;2023-11-21T04:58:55;100584.03;;;6.94;100.00
80986;BME280;70451;51.226;6.412;2023-11-21T05:01:10;100592.66;;;6.94;100.00
80986;BME280;70451;51.226;6.412;2023-11-21T05:03:25;100597.91;;;6.93;100.00
80986;BME280;70451;51.226;6.412;2023-11-21T05:05:41;100594.22;;;6.98;100.00
80986;BME280;70451;51.226;6.412;2023-11-21T05:07:56;100596.72;;;7.01;100.00
80986;BME280;70451;51.226;6.412;2023-11-21T05:10:11;100600.06;;;7.03;100.00
80986;BME280;70451;51.226;6.412;2023-11-21T05:12:31;100602.75;;;7.02;100.00
80986;BME280;70451;51.226;6.412;2023-11-21T05:14:53;100591.56;;;7.00;100.00
80986;BME280;70451;51.226;6.412;2023-11-21T05:17:08;100596.88;;;6.97;100.00
80986;BME280;70451;51.226;6.412;2023-11-21T05:19:23;100600.38;;;6.96;100.00
80986;BME280;70451;51.226;6.412;2023-11-21T05:21:38;100605.63;;;6.94;100.00
80986;BME280;70451;51.226;6.412;2023-11-21T05:23:54;100600.53;;;6.91;100.00
80986;BME280;70451;51.226;6.412;2023-11-21T05:26:09;100608.53;;;6.85;100.00
80986;BME280;70451;51.226;6.412;2023-11-21T05:28:25;100619.66;;;6.89;100.00
80986;BME280;70451;51.226;6.412;2023-11-21T05:30:40;100628.97;;;6.94;100.00
80986;BME280;70451;51.226;6.412;2023-11-21T05:32:55;100631.56;;;6.94;100.00
80986;BME280;70451;51.226;6.412;2023-11-21T05:35:11;100631.50;;;6.96;100.00
80986;BME280;70451;51.226;6.412;2023-11-21T05:37:31;100634.88;;;6.98;100.00
80986;BME280;70451;51.226;6.412;2023-11-21T05:39:46;100630.56;;;6.97;100.00
80986;BME280;70451;51.226;6.412;2023-11-21T05:42:02;100637.50;;;6.96;100.00
80986;BME280;70451;51.226;6.412;2023-11-21T05:44:19;100634.91;;;6.96;100.00
80986;BME280;70451;51.226;6.412;2023-11-21T05:46:34;100635.84;;;6.95;100.00
80986;BME280;70451;51.226;6.412;2023-11-21T05:48:49;100645.28;;;6.96;100.00
80986;BME280;70451;51.226;6.412;2023-11-21T05:51:06;100647.06;;;6.96;100.00
80986;BME280;70451;51.226;6.412;2023-11-21T05:53:21;100652.25;;;6.96;100.00
80986;BME280;70451;51.226;6.412;2023-11-21T05:55:37;100654.91;;;6.94;100.00
80986;BME280;70451;51.226;6.412;2023-11-21T05:57:52;100651.41;;;6.95;100.00
80986;BME280;70451;51.226;6.412;2023-11-21T06:00:13;100654.78;;;6.97;100.00
80986;BME280;70451;51.226;6.412;2023-11-21T06:02:41;100653.81;;;7.00;100.00
80986;BME280;70451;51.226;6.412;2023-11-21T06:04:56;100665.94;;;6.99;100.00
80986;BME280;70451;51.226;6.412;2023-11-21T06:07:11;100668.44;;;7.02;100.00
80986;BME280;70451;51.226;6.412;2023-11-21T06:09:27;100679.66;;;7.03;100.00
80986;BME280;70451;51.226;6.412;2023-11-21T06:11:42;100679.66;;;7.03;100.00
80986;BME280;70451;51.226;6.412;2023-11-21T06:13:58;100681.22;;;7.07;100.00
80986;BME280;70451;51.226;6.412;2023-11-21T06:16:13;100680.34;;;7.08;100.00
80986;BME280;70451;51.226;6.412;2023-11-21T06:18:33;100691.56;;;7.08;100.00
80986;BME280;70451;51.226;6.412;2023-11-21T06:20:50;100687.13;;;7.11;100.00
80986;BME280;70451;51.226;6.412;2023-11-21T06:23:05;100693.25;;;7.10;100.00
80986;BME280;70451;51.226;6.412;2023-11-21T06:25:20;100692.31;;;7.11;100.00
80986;BME280;70451;51.226;6.412;2023-11-21T06:27:39;100695.84;;;7.10;100.00
80986;BME280;70451;51.226;6.412;2023-11-21T06:29:54;100693.19;;;7.11;100.00
80986;BME280;70451;51.226;6.412;2023-11-21T06:32:09;100687.09;;;7.12;100.00
80986;BME280;70451;51.226;6.412;2023-11-21T06:34:25;100695.75;;;7.11;100.00
80986;BME280;70451;51.226;6.412;2023-11-21T06:36:42;100704.34;;;7.13;100.00
80986;BME280;70451;51.226;6.412;2023-11-21T06:38:57;100706.94;;;7.13;100.00
80986;BME280;70451;51.226;6.412;2023-11-21T06:41:13;100711.22;;;7.14;100.00
80986;BME280;70451;51.226;6.412;2023-11-21T06:43:30;100714.78;;;7.12;100.00
80986;BME280;70451;51.226;6.412;2023-11-21T06:45:48;100718.16;;;7.14;100.00
80986;BME280;70451;51.226;6.412;2023-11-21T06:48:04;100717.28;;;7.15;100.00
80986;BME280;70451;51.226;6.412;2023-11-21T06:50:19;100716.44;;;7.14;100.00
80986;BME280;70451;51.226;6.412;2023-11-21T06:52:35;100723.25;;;7.17;100.00
80986;BME280;70451;51.226;6.412;2023-11-21T06:54:50;100732.72;;;7.18;100.00
80986;BME280;70451;51.226;6.412;2023-11-21T06:57:05;100736.16;;;7.18;100.00
80986;BME280;70451;51.226;6.412;2023-11-21T06:59:21;100739.56;;;7.20;100.00
80986;BME280;70451;51.226;6.412;2023-11-21T07:01:36;100738.69;;;7.20;100.00
80986;BME280;70451;51.226;6.412;2023-11-21T07:03:56;100748.13;;;7.22;100.00
80986;BME280;70451;51.226;6.412;2023-11-21T07:06:12;100752.34;;;7.25;100.00
80986;BME280;70451;51.226;6.412;2023-11-21T07:08:27;100753.19;;;7.25;100.00
80986;BME280;70451;51.226;6.412;2023-11-21T07:10:42;100753.16;;;7.27;100.00
80986;BME280;70451;51.226;6.412;2023-11-21T07:12:58;100750.47;;;7.30;100.00
80986;BME280;70451;51.226;6.412;2023-11-21T07:15:13;100759.94;;;7.31;100.00
80986;BME280;70451;51.226;6.412;2023-11-21T07:17:28;100757.25;;;7.32;100.00
80986;BME280;70451;51.226;6.412;2023-11-21T07:19:44;100753.78;;;7.33;100.00
80986;BME280;70451;51.226;6.412;2023-11-21T07:21:59;100758.81;;;7.38;100.00
80986;BME280;70451;51.226;6.412;2023-11-21T07:24:14;100757.88;;;7.39;100.00
80986;BME280;70451;51.226;6.412;2023-11-21T07:26:30;100762.09;;;7.43;100.00
80986;BME280;70451;51.226;6.412;2023-11-21T07:28:45;100765.47;;;7.45;100.00
80986;BME280;70451;51.226;6.412;2023-11-21T07:31:01;100759.31;;;7.47;100.00
80986;BME280;70451;51.226;6.412;2023-11-21T07:33:16;100770.50;;;7.50;100.00
80986;BME280;70451;51.226;6.412;2023-11-21T07:35:32;100773.88;;;7.52;100.00
80986;BME280;70451;51.226;6.412;2023-11-21T07:37:48;100776.41;;;7.53;100.00
80986;BME280;70451;51.226;6.412;2023-11-21T07:40:04;100781.50;;;7.56;100.00
80986;BME280;70451;51.226;6.412;2023-11-21T07:42:19;100788.56;;;7.53;100.00
80986;BME280;70451;51.226;6.412;2023-11-21T07:44:35;100796.28;;;7.54;100.00
80986;BME280;70451;51.226;6.412;2023-11-21T07:46:50;100790.41;;;7.49;100.00
80986;BME280;70451;51.226;6.412;2023-11-21T07:49:05;100791.78;;;7.59;100.00
80986;BME280;70451;51.226;6.412;2023-11-21T07:51:21;100795.03;;;7.64;100.00
80986;BME280;70451;51.226;6.412;2023-11-21T07:53:37;100803.78;;;7.62;100.00
80986;BME280;70451;51.226;6.412;2023-11-21T07:55:52;100799.22;;;7.68;100.00
80986;BME280;70451;51.226;6.412;2023-11-21T07:58:07;100811.25;;;7.71;100.00
80986;BME280;70451;51.226;6.412;2023-11-21T08:00:23;100817.91;;;7.78;100.00
80986;BME280;70451;51.226;6.412;2023-11-21T08:02:39;100814.41;;;7.79;100.00
80986;BME280;70451;51.226;6.412;2023-11-21T08:04:57;100817.00;;;7.79;100.00
80986;BME280;70451;51.226;6.412;2023-11-21T08:07:12;100821.91;;;7.86;100.00
80986;BME280;70451;51.226;6.412;2023-11-21T08:09:27;100827.25;;;7.82;100.00
80986;BME280;70451;51.226;6.412;2023-11-21T08:11:43;100828.63;;;7.92;100.00
80986;BME280;70451;51.226;6.412;2023-11-21T08:13:58;100831.19;;;7.94;100.00
80986;BME280;70451;51.226;6.412;2023-11-21T08:16:14;100825.75;;;8.00;100.00
80986;BME280;70451;51.226;6.412;2023-11-21T08:18:30;100825.78;;;7.98;100.00
80986;BME280;70451;51.226;6.412;2023-11-21T08:20:45;100831.88;;;7.97;100.00
80986;BME280;70451;51.226;6.412;2023-11-21T08:23:03;100844.88;;;7.97;100.00
80986;BME280;70451;51.226;6.412;2023-11-21T08:25:20;100834.38;;;8.00;100.00
80986;BME280;70451;51.226;6.412;2023-11-21T08:27:36;100836.84;;;8.03;100.00
80986;BME280;70451;51.226;6.412;2023-11-21T08:29:51;100847.47;;;7.97;100.00
80986;BME280;70451;51.226;6.412;2023-11-21T08:32:07;100848.31;;;7.98;100.00
80986;BME280;70451;51.226;6.412;2023-11-21T08:34:22;100843.69;;;8.06;100.00
80986;BME280;70451;51.226;6.412;2023-11-21T08:36:45;100851.50;;;8.06;100.00
80986;BME280;70451;51.226;6.412;2023-11-21T08:39:00;100855.50;;;8.14;100.00
80986;BME280;70451;51.226;6.412;2023-11-21T08:41:16;100856.72;;;8.27;100.00
80986;BME280;70451;51.226;6.412;2023-11-21T08:43:31;100860.16;;;8.28;100.00
80986;BME280;70451;51.226;6.412;2023-11-21T08:45:46;100861.25;;;8.22;100.00
80986;BME280;70451;51.226;6.412;2023-11-21T08:48:02;100867.16;;;8.26;100.00
80986;BME280;70451;51.226;6.412;2023-11-21T08:50:18;100862.41;;;8.15;100.00
80986;BME280;70451;51.226;6.412;2023-11-21T08:52:34;100866.44;;;8.22;100.00
80986;BME280;70451;51.226;6.412;2023-11-21T08:54:50;100867.41;;;8.20;100.00
80986;BME280;70451;51.226;6.412;2023-11-21T08:57:11;100877.94;;;8.17;100.00
80986;BME280;70451;51.226;6.412;2023-11-21T08:59:26;100883.06;;;8.18;100.00
80986;BME280;70451;51.226;6.412;2023-11-21T09:01:41;100878.59;;;8.22;100.00
80986;BME280;70451;51.226;6.412;2023-11-21T09:03:57;100884.94;;;8.15;100.00
80986;BME280;70451;51.226;6.412;2023-11-21T09:06:13;100887.28;;;8.21;100.00
80986;BME280;70451;51.226;6.412;2023-11-21T09:08:29;100890.69;;;8.23;100.00
80986;BME280;70451;51.226;6.412;2023-11-21T09:10:44;100893.97;;;8.28;100.00
80986;BME280;70451;51.226;6.412;2023-11-21T09:13:02;100904.91;;;8.38;100.00
80986;BME280;70451;51.226;6.412;2023-11-21T09:15:18;100903.91;;;8.40;100.00
80986;BME280;70451;51.226;6.412;2023-11-21T09:17:33;100905.63;;;8.41;100.00
80986;BME280;70451;51.226;6.412;2023-11-21T09:19:51;100908.25;;;8.40;100.00
80986;BME280;70451;51.226;6.412;2023-11-21T09:22:07;100914.69;;;8.30;100.00
80986;BME280;70451;51.226;6.412;2023-11-21T09:24:22;100914.22;;;8.43;100.00
80986;BME280;70451;51.226;6.412;2023-11-21T09:26:37;100923.34;;;8.30;100.00
80986;BME280;70451;51.226;6.412;2023-11-21T09:28:53;100921.16;;;8.43;100.00
80986;BME280;70451;51.226;6.412;2023-11-21T09:31:08;100915.66;;;8.50;100.00
80986;BME280;70451;51.226;6.412;2023-11-21T09:33:24;100928.66;;;8.50;100.00
80986;BME280;70451;51.226;6.412;2023-11-21T09:35:40;100930.47;;;8.48;100.00
80986;BME280;70451;51.226;6.412;2023-11-21T09:37:55;100928.72;;;8.49;100.00
80986;BME280;70451;51.226;6.412;2023-11-21T09:40:11;100932.16;;;8.49;100.00
80986;BME280;70451;51.226;6.412;2023-11-21T09:42:58;100932.06;;;8.52;100.00
80986;BME280;70451;51.226;6.412;2023-11-21T09:45:29;100939.41;;;8.41;100.00
80986;BME280;70451;51.226;6.412;2023-11-21T09:47:49;100933.97;;;8.47;100.00
80986;BME280;70451;51.226;6.412;2023-11-21T09:50:05;100937.97;;;8.56;100.00
80986;BME280;70451;51.226;6.412;2023-11-21T09:52:27;100938.94;;;8.53;100.00
80986;BME280;70451;51.226;6.412;2023-11-21T09:54:42;100938.47;;;8.44;100.00
80986;BME280;70451;51.226;6.412;2023-11-21T09:57:01;100940.53;;;8.57;100.00
80986;BME280;70451;51.226;6.412;2023-11-21T09:59:17;100934.19;;;8.64;100.00
80986;BME280;70451;51.226;6.412;2023-11-21T10:01:35;100942.88;;;8.63;100.00
80986;BME280;70451;51.226;6.412;2023-11-21T10:03:51;100941.34;;;8.59;100.00
80986;BME280;70451;51.226;6.412;2023-11-21T10:06:07;100944.28;;;8.72;100.00
80986;BME280;70451;51.226;6.412;2023-11-21T10:08:24;100945.50;;;8.85;100.00
80986;BME280;70451;51.226;6.412;2023-11-21T10:10:43;100943.69;;;9.09;100.00
80986;BME280;70451;51.226;6.412;2023-11-21T10:13:05;100949.56;;;8.92;100.00
80986;BME280;70451;51.226;6.412;2023-11-21T10:15:23;100951.50;;;8.87;100.00
80986;BME280;70451;51.226;6.412;2023-11-21T10:17:40;100956.72;;;8.87;100.00
80986;BME280;70451;51.226;6.412;2023-11-21T10:20:00;100953.00;;;8.93;100.00
80986;BME280;70451;51.226;6.412;2023-11-21T10:22:15;100957.84;;;9.02;100.00
80986;BME280;70451;51.226;6.412;2023-11-21T10:24:31;100956.28;;;8.98;100.00
80986;BME280;70451;51.226;6.412;2023-11-21T10:26:47;100961.78;;;8.90;100.00
80986;BME280;70451;51.226;6.412;2023-11-21T10:29:03;100956.56;;;8.90;100.00
80986;BME280;70451;51.226;6.412;2023-11-21T10:31:19;100957.31;;;8.72;100.00
80986;BME280;70451;51.226;6.412;2023-11-21T10:33:34;100960.97;;;8.88;100.00
80986;BME280;70451;51.226;6.412;2023-11-21T10:35:49;100963.53;;;8.90;100.00
80986;BME280;70451;51.226;6.412;2023-11-21T10:38:09;100960.38;;;9.03;100.00
80986;BME280;70451;51.226;6.412;2023-11-21T10:40:27;100974.28;;;9.02;100.00
80986;BME280;70451;51.226;6.412;2023-11-21T10:42:44;100975.44;;;9.17;100.00
80986;BME280;70451;51.226;6.412;2023-11-21T10:44:59;100975.88;;;9.28;100.00
80986;BME280;70451;51.226;6.412;2023-11-21T10:47:16;100967.44;;;9.43;100.00
80986;BME280;70451;51.226;6.412;2023-11-21T10:49:34;100972.09;;;9.35;100.00
80986;BME280;70451;51.226;6.412;2023-11-21T10:51:49;100975.09;;;9.47;100.00
80986;BME280;70451;51.226;6.412;2023-11-21T10:54:05;100974.25;;;9.46;100.00
80986;BME280;70451;51.226;6.412;2023-11-21T10:56:23;100974.56;;;9.38;100.00
80986;BME280;70451;51.226;6.412;2023-11-21T10:58:40;100972.25;;;9.53;100.00
80986;BME280;70451;51.226;6.412;2023-11-21T11:00:56;100969.03;;;9.46;100.00
80986;BME280;70451;51.226;6.412;2023-11-21T11:03:12;100975.34;;;9.40;100.00
80986;BME280;70451;51.226;6.412;2023-11-21T11:05:30;100983.53;;;9.31;100.00
80986;BME280;70451;51.226;6.412;2023-11-21T11:07:54;100981.25;;;9.24;100.00
80986;BME280;70451;51.226;6.412;2023-11-21T11:10:15;100985.84;;;9.39;100.00
80986;BME280;70451;51.226;6.412;2023-11-21T11:12:30;100989.16;;;9.42;100.00
80986;BME280;70451;51.226;6.412;2023-11-21T11:14:46;100987.69;;;9.57;100.00
80986;BME280;70451;51.226;6.412;2023-11-21T11:17:03;100989.75;;;9.49;100.00
80986;BME280;70451;51.226;6.412;2023-11-21T11:19:20;100990.16;;;9.60;100.00
80986;BME280;70451;51.226;6.412;2023-11-21T11:27:18;100999.84;;;9.36;100.00
80986;BME280;70451;51.226;6.412;2023-11-21T11:29:52;100999.88;;;9.57;100.00
80986;BME280;70451;51.226;6.412;2023-11-21T11:35:15;101003.97;;;9.82;100.00
80986;BME280;70451;51.226;6.412;2023-11-21T11:37:32;100993.16;;;9.92;100.00
80986;BME280;70451;51.226;6.412;2023-11-21T11:39:49;101001.03;;;9.90;100.00
80986;BME280;70451;51.226;6.412;2023-11-21T11:42:17;100990.03;;;10.04;100.00
80986;BME280;70451;51.226;6.412;2023-11-21T11:47:00;101001.94;;;10.09;100.00
80986;BME280;70451;51.226;6.412;2023-11-21T11:49:28;101004.19;;;10.18;100.00
80986;BME280;70451;51.226;6.412;2023-11-21T11:51:44;101005.09;;;10.17;100.00
80986;BME280;70451;51.226;6.412;2023-11-21T11:53:59;100993.88;;;10.36;100.00
80986;BME280;70451;51.226;6.412;2023-11-21T11:58:41;101007.97;;;10.50;100.00
80986;BME280;70451;51.226;6.412;2023-11-21T12:00:56;101011.34;;;10.34;100.00
80986;BME280;70451;51.226;6.412;2023-11-21T12:03:13;101018.31;;;10.13;100.00
80986;BME280;70451;51.226;6.412;2023-11-21T12:05:32;101018.56;;;10.07;100.00
80986;BME280;70451;51.226;6.412;2023-11-21T12:10:05;101008.75;;;9.93;100.00